createdAt,value
2022-10-13T16:57:58.954Z,97.77
2022-10-13T16:58:59.934Z,97.47
2022-10-13T16:59:59.926Z,97.26
2022-10-13T17:00:59.946Z,97.26
2022-10-13T17:01:59.934Z,97.36
2022-10-13T17:02:59.892Z,97.36
2022-10-13T17:03:59.892Z,97.16
2022-10-13T17:04:59.861Z,97.26
2022-10-13T17:05:59.864Z,97.36
2022-10-13T17:06:59.864Z,97.26
2022-10-13T17:07:59.835Z,97.16
2022-10-13T17:08:59.819Z,97.36
2022-10-13T17:09:59.815Z,97.56
2022-10-13T17:10:59.828Z,97.56
2022-10-13T17:11:59.817Z,97.47
2022-10-13T17:12:59.779Z,97.77
2022-10-13T17:13:59.790Z,98.02
2022-10-13T17:14:59.757Z,98.12
2022-10-13T17:15:59.753Z,97.92
2022-10-13T17:16:59.788Z,98.12
2022-10-13T17:17:59.760Z,98.02
2022-10-13T17:18:59.726Z,98.32
2022-10-13T17:19:59.727Z,98.52
2022-10-13T17:20:59.715Z,98.43
2022-10-13T17:21:59.716Z,98.52
2022-10-13T17:22:59.710Z,98.63
2022-10-13T17:23:59.691Z,98.63
2022-10-13T17:24:59.674Z,98.73
2022-10-13T17:25:59.657Z,98.83
2022-10-13T17:26:59.672Z,98.93
2022-10-13T17:27:59.650Z,98.83
2022-10-13T17:28:59.652Z,98.73
2022-10-13T17:29:59.615Z,98.73
2022-10-13T17:30:59.615Z,98.73
2022-10-13T17:31:59.623Z,98.77
2022-10-13T17:33:03.448Z,98.97
2022-10-13T17:33:59.602Z,98.77
2022-10-13T17:34:59.565Z,98.77
2022-10-13T17:35:59.562Z,98.88
2022-10-13T17:36:59.560Z,99.08
2022-10-13T17:37:59.549Z,99.08
2022-10-13T17:38:59.542Z,98.97
2022-10-13T17:39:59.515Z,98.97
2022-10-13T17:40:59.850Z,98.88
2022-10-13T17:41:59.520Z,98.88
2022-10-13T17:42:59.476Z,98.97
2022-10-13T17:43:59.471Z,98.97
2022-10-13T17:44:59.472Z,99.08
2022-10-13T17:46:17.666Z,98.97
2022-10-13T17:46:59.464Z,98.97
2022-10-13T17:47:59.448Z,99.08
2022-10-13T17:48:59.410Z,99.08
2022-10-13T17:49:59.410Z,99.08
2022-10-13T17:50:59.403Z,99.22
2022-10-13T17:51:59.421Z,99.22
2022-10-13T17:52:59.425Z,99.33
2022-10-13T17:53:59.550Z,99.53
2022-10-13T17:54:59.371Z,99.63
2022-10-13T17:55:59.367Z,99.74
2022-10-13T17:57:01.350Z,99.74
2022-10-13T17:58:08.384Z,99.84
2022-10-13T17:59:01.892Z,99.99
2022-10-13T17:59:59.333Z,99.99
2022-10-13T18:01:12.962Z,99.99
2022-10-13T18:01:59.544Z,99.99
2022-10-13T18:02:59.341Z,99.88
2022-10-13T18:03:59.282Z,99.78
2022-10-13T18:04:59.260Z,99.58
2022-10-13T18:06:00.226Z,99.48
2022-10-13T18:06:59.255Z,99.38
2022-10-13T18:07:59.284Z,99.27
2022-10-13T18:08:59.247Z,99.17
2022-10-13T18:09:59.208Z,99.27
2022-10-13T18:11:14.581Z,99.27
2022-10-13T18:11:59.212Z,99.27
2022-10-13T18:12:59.168Z,99.27
2022-10-13T18:13:59.182Z,99.38
2022-10-13T18:14:59.147Z,99.38
2022-10-13T18:15:59.148Z,99.48
2022-10-13T18:16:59.150Z,99.38
2022-10-13T18:17:59.142Z,99.48
2022-10-13T18:18:59.132Z,99.48
2022-10-13T18:19:59.117Z,99.48
2022-10-13T18:20:59.095Z,99.48
2022-10-13T18:21:59.109Z,99.48
2022-10-13T18:22:59.089Z,99.78
2022-10-13T18:23:59.094Z,99.88
2022-10-13T18:24:59.075Z,99.93
2022-10-13T18:25:59.053Z,99.93
2022-10-13T18:26:59.058Z,99.99
2022-10-13T18:27:59.043Z,99.99
2022-10-13T18:29:01.021Z,99.99
2022-10-13T18:30:00.678Z,99.99
2022-10-13T18:31:04.170Z,99.99
2022-10-13T18:32:00.689Z,99.99
2022-10-13T18:33:00.662Z,99.99
2022-10-13T18:33:58.995Z,99.99
2022-10-13T18:35:00.819Z,99.99
2022-10-13T18:35:59.553Z,99.99
2022-10-13T18:36:58.957Z,99.99
2022-10-13T18:37:58.934Z,99.99
2022-10-13T18:38:58.905Z,99.99
2022-10-13T18:40:03.689Z,99.93
2022-10-13T18:41:03.195Z,99.93
2022-10-13T18:42:03.248Z,99.93
2022-10-13T18:43:01.199Z,99.93
2022-10-13T18:43:58.889Z,99.93
2022-10-13T18:44:58.845Z,99.93
2022-10-13T18:45:58.840Z,99.93
2022-10-13T18:47:02.773Z,99.93
2022-10-13T18:48:01.679Z,99.99
2022-10-13T18:49:03.464Z,99.99
2022-10-13T18:49:59.766Z,99.99
2022-10-13T18:50:58.818Z,99.99
2022-10-13T18:51:58.819Z,99.93
2022-10-13T18:52:59.919Z,99.93
2022-10-13T18:54:01.011Z,99.88
2022-10-13T18:55:00.528Z,99.93
2022-10-13T18:55:59.790Z,99.98
2022-10-13T18:56:58.748Z,99.99
2022-10-13T18:57:58.732Z,99.99
2022-10-13T18:59:01.212Z,99.99
2022-10-13T19:00:01.301Z,99.99
2022-10-13T19:01:04.384Z,99.99
2022-10-13T19:01:58.712Z,99.99
2022-10-13T19:02:58.678Z,99.99
2022-10-13T19:04:05.791Z,99.99
2022-10-13T19:04:59.611Z,99.99
2022-10-13T19:05:58.664Z,99.99
2022-10-13T19:06:58.659Z,99.99
2022-10-13T19:07:58.642Z,99.99
2022-10-13T19:08:58.613Z,99.99
2022-10-13T19:09:58.594Z,99.99
2022-10-13T19:10:58.584Z,99.99
2022-10-13T19:11:58.592Z,99.99
2022-10-13T19:12:58.577Z,99.99
2022-10-13T19:13:58.565Z,99.99
2022-10-13T19:14:58.554Z,99.99
2022-10-13T19:15:58.535Z,99.99
2022-10-13T19:17:01.971Z,99.99
2022-10-13T19:17:58.521Z,99.99
2022-10-13T19:18:58.519Z,99.99
